This is the latest recevied weather packets stored in our database for station/object WB4ZUT. If no packets are shown the sender has not sent any weather packets the latest 10 day(s).
| Time | Temp. | Humidity | Pressure | Rain* | Wind** | Luminosity | Snow |
|---|---|---|---|---|---|---|---|
| 1777509338 | 15.56° C | 64% | 1014.2 hPa | 0 mm | - | 3 W/m² | - |
| 1777509036 | 15.56° C | 63% | 1014.3 hPa | 0 mm | - | 6 W/m² | - |
| 1777508733 | 15.56° C | 64% | 1014.4 hPa | 0 mm | - | 9 W/m² | - |
| 1777508430 | 16.11° C | 63% | 1014.2 hPa | 0 mm | - | 12 W/m² | - |
| 1777508127 | 16.11° C | 63% | 1014.3 hPa | 0 mm | - | 15 W/m² | - |
| 1777507824 | 16.11° C | 62% | 1014.3 hPa | 0 mm | - | 18 W/m² | - |
| 1777507521 | 16.67° C | 63% | 1014.1 hPa | 0 mm | - | 22 W/m² | - |
| 1777507217 | 16.67° C | 62% | 1014.2 hPa | 0 mm | - | 24 W/m² | - |
| 1777506916 | 16.67° C | 62% | 1014.2 hPa | 0 mm | - | 42 W/m² | - |
| 1777506612 | 17.22° C | 62% | 1014 hPa | 0 mm | - | 34 W/m² | - |
| 1777506309 | 17.22° C | 61% | 1013.8 hPa | 0 mm | - | 49 W/m² | - |
| 1777506004 | 17.78° C | 61% | 1013.8 hPa | 0 mm | - | 61 W/m² | - |
| 1777505700 | 17.78° C | 59% | 1013.9 hPa | 0 mm | - | 52 W/m² | - |
| 1777505397 | 17.78° C | 60% | 1013.9 hPa | 0 mm | - | 51 W/m² | - |
| 1777505094 | 18.33° C | 57% | 1013.9 hPa | 0 mm | - | 61 W/m² | - |
| 1777504791 | 18.33° C | 56% | 1013.9 hPa | 0 mm | - | 133 W/m² | - |
| 1777504488 | 18.33° C | 57% | 1013.9 hPa | 0 mm | - | 173 W/m² | - |
| 1777504183 | 18.33° C | 56% | 1013.9 hPa | 0 mm | - | 177 W/m² | - |
| 1777503879 | 18.89° C | 57% | 1013.7 hPa | 0 mm | - | 173 W/m² | - |
| 1777503575 | 18.89° C | 57% | 1013.9 hPa | 0 mm | - | 186 W/m² | - |
| 1777503273 | 18.89° C | 57% | 1013.8 hPa | 0 mm | - | 199 W/m² | - |
| 1777502969 | 18.89° C | 57% | 1014 hPa | 0 mm | - | 214 W/m² | - |
| 1777502667 | 19.44° C | 56% | 1013.9 hPa | 0 mm | - | 227 W/m² | - |
| 1777502363 | 18.89° C | 58% | 1013.9 hPa | 0 mm | - | 258 W/m² | - |
| 1777502060 | 18.89° C | 58% | 1013.8 hPa | 0 mm | - | 275 W/m² | - |
* Rain latest hour (hover to see other rain measurements)
** Current wind speed in m/s (hover to see current wind gust speed)